sensor_id;sensor_type;location;lat;lon;timestamp;P1;durP1;ratioP1;P2;durP2;ratioP2
45762;SDS011;37512;52.408;13.356;2022-12-10T00:03:56;26.02;;;12.18;;
45762;SDS011;37512;52.408;13.356;2022-12-10T00:07:58;25.73;;;13.85;;
45762;SDS011;37512;52.408;13.356;2022-12-10T00:11:59;22.92;;;12.65;;
45762;SDS011;37512;52.408;13.356;2022-12-10T00:16:01;23.23;;;12.35;;
45762;SDS011;37512;52.408;13.356;2022-12-10T00:20:04;28.73;;;13.63;;
45762;SDS011;37512;52.408;13.356;2022-12-10T00:24:06;27.48;;;12.70;;
45762;SDS011;37512;52.408;13.356;2022-12-10T00:28:08;27.55;;;13.80;;
45762;SDS011;37512;52.408;13.356;2022-12-10T00:32:10;28.92;;;13.45;;
45762;SDS011;37512;52.408;13.356;2022-12-10T00:36:15;25.15;;;12.30;;
45762;SDS011;37512;52.408;13.356;2022-12-10T00:40:19;25.80;;;13.23;;
45762;SDS011;37512;52.408;13.356;2022-12-10T00:44:20;20.45;;;11.98;;
45762;SDS011;37512;52.408;13.356;2022-12-10T00:48:22;20.30;;;11.40;;
45762;SDS011;37512;52.408;13.356;2022-12-10T00:52:24;19.52;;;10.88;;
45762;SDS011;37512;52.408;13.356;2022-12-10T00:56:29;24.80;;;11.55;;
45762;SDS011;37512;52.408;13.356;2022-12-10T01:00:33;26.67;;;10.82;;
45762;SDS011;37512;52.408;13.356;2022-12-10T01:04:34;22.63;;;11.38;;
45762;SDS011;37512;52.408;13.356;2022-12-10T01:08:36;23.67;;;12.27;;
45762;SDS011;37512;52.408;13.356;2022-12-10T01:12:38;23.20;;;10.85;;
45762;SDS011;37512;52.408;13.356;2022-12-10T01:16:39;26.52;;;13.52;;
45762;SDS011;37512;52.408;13.356;2022-12-10T01:20:41;22.52;;;11.95;;
45762;SDS011;37512;52.408;13.356;2022-12-10T01:24:42;23.70;;;10.98;;
45762;SDS011;37512;52.408;13.356;2022-12-10T01:28:44;23.58;;;11.30;;
45762;SDS011;37512;52.408;13.356;2022-12-10T01:32:46;24.50;;;12.02;;
45762;SDS011;37512;52.408;13.356;2022-12-10T01:36:49;21.10;;;10.90;;
45762;SDS011;37512;52.408;13.356;2022-12-10T01:40:52;24.67;;;12.50;;
45762;SDS011;37512;52.408;13.356;2022-12-10T01:44:56;28.10;;;12.50;;
45762;SDS011;37512;52.408;13.356;2022-12-10T01:49:01;28.95;;;13.00;;
45762;SDS011;37512;52.408;13.356;2022-12-10T01:53:05;23.35;;;11.52;;
45762;SDS011;37512;52.408;13.356;2022-12-10T02:05:16;21.90;;;11.13;;
45762;SDS011;37512;52.408;13.356;2022-12-10T02:09:35;25.95;;;12.57;;
45762;SDS011;37512;52.408;13.356;2022-12-10T02:13:46;26.17;;;13.10;;
45762;SDS011;37512;52.408;13.356;2022-12-10T02:17:58;27.75;;;12.77;;
45762;SDS011;37512;52.408;13.356;2022-12-10T02:22:05;27.42;;;12.32;;
45762;SDS011;37512;52.408;13.356;2022-12-10T02:26:11;28.00;;;13.60;;
45762;SDS011;37512;52.408;13.356;2022-12-10T02:30:18;24.33;;;12.83;;
45762;SDS011;37512;52.408;13.356;2022-12-10T02:34:20;26.58;;;12.40;;
45762;SDS011;37512;52.408;13.356;2022-12-10T02:38:28;20.30;;;11.25;;
45762;SDS011;37512;52.408;13.356;2022-12-10T02:42:33;25.23;;;13.37;;
45762;SDS011;37512;52.408;13.356;2022-12-10T02:46:39;31.42;;;14.32;;
45762;SDS011;37512;52.408;13.356;2022-12-10T02:50:43;25.75;;;11.93;;
45762;SDS011;37512;52.408;13.356;2022-12-10T02:54:45;21.08;;;11.23;;
45762;SDS011;37512;52.408;13.356;2022-12-10T03:07:46;23.33;;;12.38;;
45762;SDS011;37512;52.408;13.356;2022-12-10T03:11:53;23.88;;;11.48;;
45762;SDS011;37512;52.408;13.356;2022-12-10T03:16:03;20.02;;;11.18;;
45762;SDS011;37512;52.408;13.356;2022-12-10T03:20:09;22.38;;;11.75;;
45762;SDS011;37512;52.408;13.356;2022-12-10T03:24:14;24.80;;;12.07;;
45762;SDS011;37512;52.408;13.356;2022-12-10T03:28:18;21.25;;;10.73;;
45762;SDS011;37512;52.408;13.356;2022-12-10T03:32:21;25.70;;;11.88;;
45762;SDS011;37512;52.408;13.356;2022-12-10T03:36:26;25.52;;;11.50;;
45762;SDS011;37512;52.408;13.356;2022-12-10T03:40:30;24.27;;;11.27;;
45762;SDS011;37512;52.408;13.356;2022-12-10T03:44:33;25.08;;;11.93;;
45762;SDS011;37512;52.408;13.356;2022-12-10T03:48:36;29.67;;;13.88;;
45762;SDS011;37512;52.408;13.356;2022-12-10T03:52:38;23.75;;;12.25;;
45762;SDS011;37512;52.408;13.356;2022-12-10T03:56:39;27.85;;;13.00;;
45762;SDS011;37512;52.408;13.356;2022-12-10T04:00:41;26.63;;;13.45;;
45762;SDS011;37512;52.408;13.356;2022-12-10T04:04:42;24.92;;;11.10;;
45762;SDS011;37512;52.408;13.356;2022-12-10T04:08:44;24.05;;;11.82;;
45762;SDS011;37512;52.408;13.356;2022-12-10T04:12:46;26.08;;;11.80;;
45762;SDS011;37512;52.408;13.356;2022-12-10T04:17:08;20.77;;;12.15;;
45762;SDS011;37512;52.408;13.356;2022-12-10T04:21:10;26.33;;;13.52;;
45762;SDS011;37512;52.408;13.356;2022-12-10T04:25:30;24.25;;;12.75;;
45762;SDS011;37512;52.408;13.356;2022-12-10T04:29:50;24.95;;;12.18;;
45762;SDS011;37512;52.408;13.356;2022-12-10T04:33:51;31.02;;;13.85;;
45762;SDS011;37512;52.408;13.356;2022-12-10T04:37:53;24.95;;;13.07;;
45762;SDS011;37512;52.408;13.356;2022-12-10T04:41:54;24.58;;;12.05;;
45762;SDS011;37512;52.408;13.356;2022-12-10T04:45:56;24.88;;;11.73;;
45762;SDS011;37512;52.408;13.356;2022-12-10T04:49:57;28.27;;;14.15;;
45762;SDS011;37512;52.408;13.356;2022-12-10T04:53:59;21.15;;;10.02;;
45762;SDS011;37512;52.408;13.356;2022-12-10T04:58:01;27.92;;;13.45;;
45762;SDS011;37512;52.408;13.356;2022-12-10T05:02:03;21.92;;;12.18;;
45762;SDS011;37512;52.408;13.356;2022-12-10T05:06:09;26.13;;;11.60;;
45762;SDS011;37512;52.408;13.356;2022-12-10T05:10:13;24.95;;;12.65;;
45762;SDS011;37512;52.408;13.356;2022-12-10T05:14:14;29.42;;;13.77;;
45762;SDS011;37512;52.408;13.356;2022-12-10T05:18:16;31.20;;;15.15;;
45762;SDS011;37512;52.408;13.356;2022-12-10T05:22:18;23.02;;;11.40;;
45762;SDS011;37512;52.408;13.356;2022-12-10T05:26:38;25.17;;;12.45;;
45762;SDS011;37512;52.408;13.356;2022-12-10T05:30:39;29.63;;;14.30;;
45762;SDS011;37512;52.408;13.356;2022-12-10T05:34:41;24.30;;;12.90;;
45762;SDS011;37512;52.408;13.356;2022-12-10T05:38:42;24.10;;;11.95;;
45762;SDS011;37512;52.408;13.356;2022-12-10T05:42:45;23.63;;;12.70;;
45762;SDS011;37512;52.408;13.356;2022-12-10T05:46:47;23.42;;;12.35;;
45762;SDS011;37512;52.408;13.356;2022-12-10T05:50:48;26.98;;;12.45;;
45762;SDS011;37512;52.408;13.356;2022-12-10T05:54:50;27.20;;;12.07;;
45762;SDS011;37512;52.408;13.356;2022-12-10T05:58:53;29.05;;;13.07;;
45762;SDS011;37512;52.408;13.356;2022-12-10T06:02:57;28.00;;;13.38;;
45762;SDS011;37512;52.408;13.356;2022-12-10T06:06:59;26.92;;;13.40;;
45762;SDS011;37512;52.408;13.356;2022-12-10T06:11:01;25.17;;;13.50;;
45762;SDS011;37512;52.408;13.356;2022-12-10T06:15:07;22.95;;;11.63;;
45762;SDS011;37512;52.408;13.356;2022-12-10T06:19:09;24.20;;;12.38;;
45762;SDS011;37512;52.408;13.356;2022-12-10T06:23:10;27.60;;;15.85;;
45762;SDS011;37512;52.408;13.356;2022-12-10T06:27:11;20.83;;;11.98;;
45762;SDS011;37512;52.408;13.356;2022-12-10T06:31:13;23.98;;;12.15;;
45762;SDS011;37512;52.408;13.356;2022-12-10T06:35:16;23.95;;;11.40;;
45762;SDS011;37512;52.408;13.356;2022-12-10T06:39:18;23.30;;;11.38;;
45762;SDS011;37512;52.408;13.356;2022-12-10T06:43:19;21.13;;;11.85;;
45762;SDS011;37512;52.408;13.356;2022-12-10T06:47:21;20.70;;;10.05;;
45762;SDS011;37512;52.408;13.356;2022-12-10T06:51:22;20.70;;;10.93;;
45762;SDS011;37512;52.408;13.356;2022-12-10T06:55:24;21.20;;;11.30;;
45762;SDS011;37512;52.408;13.356;2022-12-10T06:59:25;22.23;;;10.23;;
45762;SDS011;37512;52.408;13.356;2022-12-10T07:03:27;21.42;;;11.70;;
45762;SDS011;37512;52.408;13.356;2022-12-10T07:07:28;26.52;;;11.48;;
45762;SDS011;37512;52.408;13.356;2022-12-10T07:11:30;23.45;;;11.85;;
45762;SDS011;37512;52.408;13.356;2022-12-10T07:15:32;19.67;;;10.85;;
45762;SDS011;37512;52.408;13.356;2022-12-10T07:19:33;22.50;;;11.38;;
45762;SDS011;37512;52.408;13.356;2022-12-10T07:23:35;20.67;;;11.55;;
45762;SDS011;37512;52.408;13.356;2022-12-10T07:27:36;25.80;;;12.60;;
45762;SDS011;37512;52.408;13.356;2022-12-10T07:31:38;23.60;;;11.88;;
45762;SDS011;37512;52.408;13.356;2022-12-10T07:35:40;20.02;;;10.98;;
45762;SDS011;37512;52.408;13.356;2022-12-10T07:39:47;20.17;;;11.10;;
45762;SDS011;37512;52.408;13.356;2022-12-10T07:43:49;21.63;;;10.68;;
45762;SDS011;37512;52.408;13.356;2022-12-10T07:47:51;23.63;;;11.43;;
45762;SDS011;37512;52.408;13.356;2022-12-10T07:51:52;18.55;;;10.25;;
45762;SDS011;37512;52.408;13.356;2022-12-10T07:55:54;22.50;;;10.98;;
45762;SDS011;37512;52.408;13.356;2022-12-10T07:59:55;20.10;;;11.10;;
45762;SDS011;37512;52.408;13.356;2022-12-10T08:03:57;18.13;;;10.50;;
45762;SDS011;37512;52.408;13.356;2022-12-10T08:07:58;18.67;;;11.27;;
45762;SDS011;37512;52.408;13.356;2022-12-10T08:12:06;15.77;;;9.55;;
45762;SDS011;37512;52.408;13.356;2022-12-10T08:16:10;18.55;;;9.70;;
45762;SDS011;37512;52.408;13.356;2022-12-10T08:20:14;17.83;;;9.40;;
45762;SDS011;37512;52.408;13.356;2022-12-10T08:24:15;16.27;;;10.07;;
45762;SDS011;37512;52.408;13.356;2022-12-10T08:28:17;16.33;;;10.35;;
45762;SDS011;37512;52.408;13.356;2022-12-10T08:32:18;16.73;;;9.63;;
45762;SDS011;37512;52.408;13.356;2022-12-10T08:36:20;18.13;;;10.95;;
45762;SDS011;37512;52.408;13.356;2022-12-10T08:40:21;16.48;;;10.13;;
45762;SDS011;37512;52.408;13.356;2022-12-10T08:44:23;14.80;;;9.07;;
45762;SDS011;37512;52.408;13.356;2022-12-10T08:48:24;15.60;;;9.43;;
45762;SDS011;37512;52.408;13.356;2022-12-10T08:52:25;19.10;;;10.45;;
45762;SDS011;37512;52.408;13.356;2022-12-10T08:56:30;18.98;;;10.55;;
45762;SDS011;37512;52.408;13.356;2022-12-10T09:00:32;18.23;;;10.05;;
45762;SDS011;37512;52.408;13.356;2022-12-10T09:04:33;18.00;;;11.00;;
45762;SDS011;37512;52.408;13.356;2022-12-10T09:08:35;14.80;;;9.38;;
45762;SDS011;37512;52.408;13.356;2022-12-10T09:12:36;16.25;;;9.23;;
45762;SDS011;37512;52.408;13.356;2022-12-10T09:16:38;14.32;;;9.52;;
45762;SDS011;37512;52.408;13.356;2022-12-10T09:20:40;18.15;;;11.52;;
45762;SDS011;37512;52.408;13.356;2022-12-10T09:24:41;17.17;;;9.93;;
45762;SDS011;37512;52.408;13.356;2022-12-10T09:28:44;15.45;;;9.93;;
45762;SDS011;37512;52.408;13.356;2022-12-10T09:32:46;18.10;;;10.27;;
45762;SDS011;37512;52.408;13.356;2022-12-10T09:36:47;17.00;;;10.70;;
45762;SDS011;37512;52.408;13.356;2022-12-10T09:46:10;19.75;;;11.73;;
45762;SDS011;37512;52.408;13.356;2022-12-10T09:55:12;15.93;;;9.80;;
45762;SDS011;37512;52.408;13.356;2022-12-10T09:59:01;18.63;;;10.63;;
45762;SDS011;37512;52.408;13.356;2022-12-10T10:03:12;17.25;;;10.35;;
45762;SDS011;37512;52.408;13.356;2022-12-10T10:07:25;16.48;;;10.35;;
45762;SDS011;37512;52.408;13.356;2022-12-10T10:11:31;18.08;;;10.20;;
45762;SDS011;37512;52.408;13.356;2022-12-10T10:15:35;15.93;;;10.05;;
45762;SDS011;37512;52.408;13.356;2022-12-10T10:19:38;15.27;;;9.93;;
45762;SDS011;37512;52.408;13.356;2022-12-10T10:23:42;17.40;;;9.63;;
45762;SDS011;37512;52.408;13.356;2022-12-10T10:27:46;16.25;;;10.55;;
45762;SDS011;37512;52.408;13.356;2022-12-10T10:31:58;18.83;;;9.65;;
45762;SDS011;37512;52.408;13.356;2022-12-10T10:36:14;20.75;;;10.82;;
45762;SDS011;37512;52.408;13.356;2022-12-10T10:41:01;18.73;;;11.32;;
45762;SDS011;37512;52.408;13.356;2022-12-10T10:44:37;17.20;;;10.52;;
45762;SDS011;37512;52.408;13.356;2022-12-10T10:48:39;22.90;;;10.75;;
45762;SDS011;37512;52.408;13.356;2022-12-10T10:52:41;13.82;;;8.80;;
45762;SDS011;37512;52.408;13.356;2022-12-10T10:56:43;18.05;;;11.88;;
45762;SDS011;37512;52.408;13.356;2022-12-10T11:09:15;16.02;;;10.60;;
45762;SDS011;37512;52.408;13.356;2022-12-10T11:13:29;21.17;;;12.43;;
45762;SDS011;37512;52.408;13.356;2022-12-10T11:17:31;18.50;;;10.30;;
45762;SDS011;37512;52.408;13.356;2022-12-10T11:21:34;17.08;;;10.30;;
45762;SDS011;37512;52.408;13.356;2022-12-10T11:25:47;20.48;;;10.48;;
45762;SDS011;37512;52.408;13.356;2022-12-10T11:30:02;14.95;;;9.85;;
45762;SDS011;37512;52.408;13.356;2022-12-10T11:34:13;16.70;;;10.95;;
45762;SDS011;37512;52.408;13.356;2022-12-10T11:38:32;20.55;;;12.07;;
45762;SDS011;37512;52.408;13.356;2022-12-10T11:42:52;21.58;;;12.15;;
45762;SDS011;37512;52.408;13.356;2022-12-10T12:00:24;21.13;;;10.95;;
45762;SDS011;37512;52.408;13.356;2022-12-10T12:13:18;18.92;;;11.32;;
45762;SDS011;37512;52.408;13.356;2022-12-10T12:17:50;20.10;;;12.00;;
45762;SDS011;37512;52.408;13.356;2022-12-10T12:21:56;26.45;;;11.57;;
45762;SDS011;37512;52.408;13.356;2022-12-10T12:26:08;19.10;;;11.75;;
45762;SDS011;37512;52.408;13.356;2022-12-10T12:30:15;23.75;;;12.10;;
45762;SDS011;37512;52.408;13.356;2022-12-10T12:43:04;25.53;;;11.37;;
45762;SDS011;37512;52.408;13.356;2022-12-10T12:47:21;16.75;;;11.10;;
45762;SDS011;37512;52.408;13.356;2022-12-10T12:51:33;20.70;;;11.55;;
45762;SDS011;37512;52.408;13.356;2022-12-10T12:55:52;20.35;;;11.75;;
45762;SDS011;37512;52.408;13.356;2022-12-10T13:00:10;20.45;;;11.52;;
45762;SDS011;37512;52.408;13.356;2022-12-10T13:04:19;22.08;;;11.65;;
45762;SDS011;37512;52.408;13.356;2022-12-10T13:12:27;23.27;;;11.52;;
45762;SDS011;37512;52.408;13.356;2022-12-10T13:20:52;23.85;;;12.20;;
45762;SDS011;37512;52.408;13.356;2022-12-10T13:26:17;19.95;;;10.18;;
45762;SDS011;37512;52.408;13.356;2022-12-10T13:29:56;24.77;;;12.35;;
45762;SDS011;37512;52.408;13.356;2022-12-10T13:38:17;22.67;;;12.32;;
45762;SDS011;37512;52.408;13.356;2022-12-10T13:42:26;20.10;;;11.30;;
45762;SDS011;37512;52.408;13.356;2022-12-10T13:51:16;23.07;;;12.73;;
45762;SDS011;37512;52.408;13.356;2022-12-10T14:08:50;18.80;;;11.77;;
45762;SDS011;37512;52.408;13.356;2022-12-10T14:12:55;20.50;;;11.43;;
45762;SDS011;37512;52.408;13.356;2022-12-10T14:17:01;18.20;;;11.63;;
45762;SDS011;37512;52.408;13.356;2022-12-10T14:21:06;19.90;;;10.55;;
45762;SDS011;37512;52.408;13.356;2022-12-10T14:25:11;35.60;;;18.30;;
45762;SDS011;37512;52.408;13.356;2022-12-10T14:29:19;19.85;;;11.20;;
45762;SDS011;37512;52.408;13.356;2022-12-10T14:33:29;20.58;;;11.73;;
45762;SDS011;37512;52.408;13.356;2022-12-10T14:37:33;18.50;;;11.63;;
45762;SDS011;37512;52.408;13.356;2022-12-10T14:41:37;19.90;;;11.65;;
45762;SDS011;37512;52.408;13.356;2022-12-10T14:45:45;23.77;;;12.43;;
45762;SDS011;37512;52.408;13.356;2022-12-10T14:49:54;19.50;;;12.75;;
45762;SDS011;37512;52.408;13.356;2022-12-10T14:53:56;19.08;;;11.73;;
45762;SDS011;37512;52.408;13.356;2022-12-10T14:57:58;22.77;;;12.05;;
45762;SDS011;37512;52.408;13.356;2022-12-10T15:02:05;23.90;;;12.30;;
45762;SDS011;37512;52.408;13.356;2022-12-10T15:06:16;24.75;;;12.07;;
45762;SDS011;37512;52.408;13.356;2022-12-10T15:10:21;25.63;;;12.15;;
45762;SDS011;37512;52.408;13.356;2022-12-10T15:14:33;22.92;;;13.38;;
45762;SDS011;37512;52.408;13.356;2022-12-10T15:18:37;24.13;;;13.32;;
45762;SDS011;37512;52.408;13.356;2022-12-10T15:22:39;27.23;;;15.40;;
45762;SDS011;37512;52.408;13.356;2022-12-10T15:26:42;24.92;;;12.80;;
45762;SDS011;37512;52.408;13.356;2022-12-10T15:30:46;25.33;;;12.35;;
45762;SDS011;37512;52.408;13.356;2022-12-10T15:34:52;30.10;;;12.93;;
45762;SDS011;37512;52.408;13.356;2022-12-10T15:39:03;21.65;;;11.77;;
45762;SDS011;37512;52.408;13.356;2022-12-10T15:47:25;26.63;;;13.65;;
45762;SDS011;37512;52.408;13.356;2022-12-10T15:51:27;27.42;;;14.63;;
45762;SDS011;37512;52.408;13.356;2022-12-10T15:55:29;23.02;;;13.07;;
45762;SDS011;37512;52.408;13.356;2022-12-10T15:59:30;30.33;;;12.88;;
45762;SDS011;37512;52.408;13.356;2022-12-10T16:03:32;25.52;;;11.55;;
45762;SDS011;37512;52.408;13.356;2022-12-10T16:07:33;22.33;;;11.98;;
45762;SDS011;37512;52.408;13.356;2022-12-10T16:11:35;30.95;;;12.95;;
45762;SDS011;37512;52.408;13.356;2022-12-10T16:15:39;22.25;;;11.27;;
45762;SDS011;37512;52.408;13.356;2022-12-10T16:20:36;26.85;;;13.70;;
45762;SDS011;37512;52.408;13.356;2022-12-10T16:24:33;29.55;;;13.25;;
45762;SDS011;37512;52.408;13.356;2022-12-10T16:28:34;29.92;;;13.27;;
45762;SDS011;37512;52.408;13.356;2022-12-10T16:32:36;35.17;;;15.55;;
45762;SDS011;37512;52.408;13.356;2022-12-10T16:36:37;28.48;;;12.70;;
45762;SDS011;37512;52.408;13.356;2022-12-10T16:40:39;29.20;;;13.68;;
45762;SDS011;37512;52.408;13.356;2022-12-10T16:44:43;28.48;;;13.07;;
45762;SDS011;37512;52.408;13.356;2022-12-10T16:48:44;31.67;;;13.82;;
45762;SDS011;37512;52.408;13.356;2022-12-10T16:52:46;34.08;;;13.93;;
45762;SDS011;37512;52.408;13.356;2022-12-10T16:56:47;32.80;;;15.57;;
45762;SDS011;37512;52.408;13.356;2022-12-10T17:00:49;30.20;;;12.63;;
45762;SDS011;37512;52.408;13.356;2022-12-10T17:04:54;36.85;;;14.88;;
45762;SDS011;37512;52.408;13.356;2022-12-10T17:08:55;37.25;;;16.55;;
45762;SDS011;37512;52.408;13.356;2022-12-10T17:12:57;33.03;;;14.45;;
45762;SDS011;37512;52.408;13.356;2022-12-10T17:16:59;30.30;;;13.68;;
45762;SDS011;37512;52.408;13.356;2022-12-10T17:21:03;29.38;;;14.18;;
45762;SDS011;37512;52.408;13.356;2022-12-10T17:25:05;35.25;;;14.40;;
45762;SDS011;37512;52.408;13.356;2022-12-10T17:29:26;32.38;;;14.52;;
45762;SDS011;37512;52.408;13.356;2022-12-10T17:33:31;39.55;;;13.30;;
45762;SDS011;37512;52.408;13.356;2022-12-10T17:37:32;33.63;;;13.02;;
45762;SDS011;37512;52.408;13.356;2022-12-10T17:41:34;34.53;;;14.82;;
45762;SDS011;37512;52.408;13.356;2022-12-10T17:45:40;33.28;;;13.48;;
45762;SDS011;37512;52.408;13.356;2022-12-10T17:49:43;31.52;;;13.55;;
45762;SDS011;37512;52.408;13.356;2022-12-10T17:53:45;26.30;;;12.40;;
45762;SDS011;37512;52.408;13.356;2022-12-10T17:57:47;30.85;;;14.10;;
45762;SDS011;37512;52.408;13.356;2022-12-10T18:01:49;33.88;;;15.30;;
45762;SDS011;37512;52.408;13.356;2022-12-10T18:05:52;38.83;;;15.32;;
45762;SDS011;37512;52.408;13.356;2022-12-10T18:09:54;34.30;;;14.15;;
45762;SDS011;37512;52.408;13.356;2022-12-10T18:13:55;30.60;;;14.95;;
45762;SDS011;37512;52.408;13.356;2022-12-10T18:17:58;43.08;;;16.15;;
45762;SDS011;37512;52.408;13.356;2022-12-10T18:22:01;30.65;;;14.07;;
45762;SDS011;37512;52.408;13.356;2022-12-10T18:26:04;36.67;;;16.05;;
45762;SDS011;37512;52.408;13.356;2022-12-10T18:30:14;42.85;;;16.33;;
45762;SDS011;37512;52.408;13.356;2022-12-10T18:34:20;42.08;;;15.65;;
45762;SDS011;37512;52.408;13.356;2022-12-10T18:38:21;37.15;;;14.93;;
45762;SDS011;37512;52.408;13.356;2022-12-10T18:42:23;38.92;;;13.48;;
45762;SDS011;37512;52.408;13.356;2022-12-10T18:46:25;43.45;;;16.58;;
45762;SDS011;37512;52.408;13.356;2022-12-10T18:50:28;43.22;;;16.30;;
45762;SDS011;37512;52.408;13.356;2022-12-10T18:54:30;35.30;;;13.57;;
45762;SDS011;37512;52.408;13.356;2022-12-10T18:58:32;41.90;;;13.90;;
45762;SDS011;37512;52.408;13.356;2022-12-10T19:02:34;38.90;;;15.20;;
45762;SDS011;37512;52.408;13.356;2022-12-10T19:06:36;40.17;;;16.45;;
45762;SDS011;37512;52.408;13.356;2022-12-10T19:10:38;44.20;;;17.13;;
45762;SDS011;37512;52.408;13.356;2022-12-10T19:14:40;47.38;;;16.50;;
45762;SDS011;37512;52.408;13.356;2022-12-10T19:18:41;37.22;;;15.73;;
45762;SDS011;37512;52.408;13.356;2022-12-10T19:22:45;40.08;;;15.98;;
45762;SDS011;37512;52.408;13.356;2022-12-10T19:26:47;38.80;;;15.40;;
45762;SDS011;37512;52.408;13.356;2022-12-10T19:30:49;34.40;;;14.77;;
45762;SDS011;37512;52.408;13.356;2022-12-10T19:34:54;37.45;;;15.52;;
45762;SDS011;37512;52.408;13.356;2022-12-10T19:38:56;35.75;;;14.82;;
45762;SDS011;37512;52.408;13.356;2022-12-10T19:42:58;31.77;;;14.05;;
45762;SDS011;37512;52.408;13.356;2022-12-10T19:47:00;29.92;;;14.85;;
45762;SDS011;37512;52.408;13.356;2022-12-10T19:51:02;39.10;;;15.80;;
45762;SDS011;37512;52.408;13.356;2022-12-10T19:55:04;39.40;;;17.48;;
45762;SDS011;37512;52.408;13.356;2022-12-10T19:59:18;28.35;;;14.45;;
45762;SDS011;37512;52.408;13.356;2022-12-10T20:03:19;26.48;;;14.73;;
45762;SDS011;37512;52.408;13.356;2022-12-10T20:07:21;36.80;;;15.90;;
45762;SDS011;37512;52.408;13.356;2022-12-10T20:11:23;26.70;;;13.48;;
45762;SDS011;37512;52.408;13.356;2022-12-10T20:15:25;25.30;;;13.68;;
45762;SDS011;37512;52.408;13.356;2022-12-10T20:19:26;35.85;;;15.32;;
45762;SDS011;37512;52.408;13.356;2022-12-10T20:23:28;27.45;;;15.23;;
45762;SDS011;37512;52.408;13.356;2022-12-10T20:27:29;28.92;;;15.00;;
45762;SDS011;37512;52.408;13.356;2022-12-10T20:31:31;31.42;;;14.48;;
45762;SDS011;37512;52.408;13.356;2022-12-10T20:35:33;34.40;;;15.63;;
45762;SDS011;37512;52.408;13.356;2022-12-10T20:39:42;37.70;;;16.43;;
45762;SDS011;37512;52.408;13.356;2022-12-10T20:43:57;27.23;;;13.57;;
45762;SDS011;37512;52.408;13.356;2022-12-10T20:47:58;32.05;;;14.48;;
45762;SDS011;37512;52.408;13.356;2022-12-10T20:52:01;33.95;;;14.75;;
45762;SDS011;37512;52.408;13.356;2022-12-10T20:56:02;25.08;;;11.20;;
45762;SDS011;37512;52.408;13.356;2022-12-10T21:00:06;29.27;;;14.00;;
45762;SDS011;37512;52.408;13.356;2022-12-10T21:04:16;26.33;;;13.02;;
45762;SDS011;37512;52.408;13.356;2022-12-10T21:08:18;28.15;;;13.68;;
45762;SDS011;37512;52.408;13.356;2022-12-10T21:12:23;28.10;;;14.32;;
45762;SDS011;37512;52.408;13.356;2022-12-10T21:16:25;29.80;;;14.68;;
45762;SDS011;37512;52.408;13.356;2022-12-10T21:20:26;31.95;;;12.15;;
45762;SDS011;37512;52.408;13.356;2022-12-10T21:24:29;25.40;;;13.05;;
45762;SDS011;37512;52.408;13.356;2022-12-10T21:28:31;22.63;;;12.43;;
45762;SDS011;37512;52.408;13.356;2022-12-10T21:32:32;25.60;;;13.50;;
45762;SDS011;37512;52.408;13.356;2022-12-10T21:36:34;24.38;;;12.18;;
45762;SDS011;37512;52.408;13.356;2022-12-10T21:40:37;18.75;;;11.85;;
45762;SDS011;37512;52.408;13.356;2022-12-10T21:44:41;21.90;;;11.48;;
45762;SDS011;37512;52.408;13.356;2022-12-10T21:48:42;26.38;;;13.77;;
45762;SDS011;37512;52.408;13.356;2022-12-10T21:52:44;24.38;;;12.00;;
45762;SDS011;37512;52.408;13.356;2022-12-10T21:56:45;23.80;;;12.18;;
45762;SDS011;37512;52.408;13.356;2022-12-10T22:00:53;22.40;;;12.27;;
45762;SDS011;37512;52.408;13.356;2022-12-10T22:04:58;25.90;;;11.85;;
45762;SDS011;37512;52.408;13.356;2022-12-10T22:09:01;19.92;;;9.90;;
45762;SDS011;37512;52.408;13.356;2022-12-10T22:13:02;22.15;;;10.57;;
45762;SDS011;37512;52.408;13.356;2022-12-10T22:17:04;19.45;;;9.98;;
45762;SDS011;37512;52.408;13.356;2022-12-10T22:21:05;18.20;;;10.45;;
45762;SDS011;37512;52.408;13.356;2022-12-10T22:25:07;17.95;;;9.38;;
45762;SDS011;37512;52.408;13.356;2022-12-10T22:29:09;20.13;;;10.15;;
45762;SDS011;37512;52.408;13.356;2022-12-10T22:33:14;21.17;;;10.88;;
45762;SDS011;37512;52.408;13.356;2022-12-10T22:37:15;17.83;;;8.85;;
45762;SDS011;37512;52.408;13.356;2022-12-10T22:41:17;19.77;;;9.23;;
45762;SDS011;37512;52.408;13.356;2022-12-10T22:45:18;20.02;;;9.77;;
45762;SDS011;37512;52.408;13.356;2022-12-10T22:49:25;9.98;;;6.75;;
45762;SDS011;37512;52.408;13.356;2022-12-10T22:53:27;13.77;;;8.70;;
45762;SDS011;37512;52.408;13.356;2022-12-10T22:57:37;18.77;;;10.02;;
45762;SDS011;37512;52.408;13.356;2022-12-10T23:01:39;15.05;;;9.02;;
45762;SDS011;37512;52.408;13.356;2022-12-10T23:05:40;17.02;;;9.43;;
45762;SDS011;37512;52.408;13.356;2022-12-10T23:09:42;16.75;;;8.80;;
45762;SDS011;37512;52.408;13.356;2022-12-10T23:13:44;18.70;;;10.40;;
45762;SDS011;37512;52.408;13.356;2022-12-10T23:17:46;20.17;;;10.38;;
45762;SDS011;37512;52.408;13.356;2022-12-10T23:21:47;22.88;;;9.57;;
45762;SDS011;37512;52.408;13.356;2022-12-10T23:25:49;14.68;;;8.80;;
45762;SDS011;37512;52.408;13.356;2022-12-10T23:29:51;18.88;;;9.50;;
45762;SDS011;37512;52.408;13.356;2022-12-10T23:33:53;16.80;;;9.93;;
45762;SDS011;37512;52.408;13.356;2022-12-10T23:37:54;16.80;;;9.18;;
45762;SDS011;37512;52.408;13.356;2022-12-10T23:41:56;18.85;;;9.32;;
45762;SDS011;37512;52.408;13.356;2022-12-10T23:45:58;18.88;;;9.55;;
45762;SDS011;37512;52.408;13.356;2022-12-10T23:49:59;14.73;;;7.18;;
45762;SDS011;37512;52.408;13.356;2022-12-10T23:54:01;20.27;;;9.43;;
45762;SDS011;37512;52.408;13.356;2022-12-10T23:58:03;14.40;;;8.45;;
